Time;durP1;ratioP1;P1;durP2;ratioP2;P2;SDS_P1;SDS_P2;PMS_P1;PMS_P2;Temp;Humidity;BMP_temperature;BMP_pressure;BME280_temperature;BME280_humidity;BME280_pressure;Samples;Min_cycle;Max_cycle;Signal;HPM_P1;HPM_P2
2023/12/10 00:01:47;;;;;;;25.30;4.73;;;;;9.40;99602.00;;;;10107402;29;20341;-78
2023/12/10 00:06:48;;;;;;;30.90;5.53;;;;;9.40;99603.00;;;;10129113;29;20225;-82
2023/12/10 00:11:49;;;;;;;18.33;3.73;;;;;9.40;99591.00;;;;10138378;29;20223;-80
2023/12/10 00:16:51;;;;;;;29.53;5.67;;;;;9.30;99611.00;;;;10120847;29;20802;-80
2023/12/10 00:21:52;;;;;;;29.93;4.53;;;;;9.30;99619.00;;;;10106477;29;20230;-80
2023/12/10 00:26:53;;;;;;;25.27;4.97;;;;;9.30;99619.00;;;;10119686;29;20261;-79
2023/12/10 00:31:54;;;;;;;26.37;5.00;;;;;9.30;99644.00;;;;10118629;29;20226;-79
2023/12/10 00:36:55;;;;;;;23.27;4.23;;;;;9.30;99647.00;;;;10113517;29;20254;-80
2023/12/10 00:41:57;;;;;;;18.17;3.77;;;;;9.30;99650.00;;;;10134307;29;20309;-81
2023/12/10 00:46:58;;;;;;;24.37;3.87;;;;;9.30;99658.00;;;;10130818;29;20812;-79
2023/12/10 00:51:59;;;;;;;22.37;4.43;;;;;9.40;99654.00;;;;10126993;29;20235;-82
2023/12/10 00:57:01;;;;;;;18.93;4.07;;;;;9.40;99667.00;;;;10140899;29;20707;-79
2023/12/10 01:02:02;;;;;;;17.13;3.47;;;;;9.30;99679.00;;;;10132413;29;20313;-80
2023/12/10 01:07:04;;;;;;;18.70;3.63;;;;;9.30;99676.00;;;;10138735;29;20230;-79
2023/12/10 01:12:06;;;;;;;22.67;4.43;;;;;9.30;99690.00;;;;10129549;29;20239;-79
2023/12/10 01:17:08;;;;;;;22.53;3.83;;;;;9.20;99703.00;;;;10120382;29;20354;-80
2023/12/10 01:22:09;;;;;;;14.13;3.37;;;;;9.20;99707.00;;;;10097959;29;20250;-78
2023/12/10 01:27:10;;;;;;;23.20;4.17;;;;;9.20;99724.00;;;;10118295;29;20238;-83
2023/12/10 01:32:11;;;;;;;19.97;3.77;;;;;9.10;99726.00;;;;10135908;29;20309;-80
2023/12/10 01:37:12;;;;;;;20.03;3.83;;;;;9.20;99750.00;;;;10142040;29;20234;-81
2023/12/10 01:42:14;;;;;;;20.13;3.70;;;;;9.10;99763.00;;;;10147831;29;20241;-79
2023/12/10 01:47:17;;;;;;;25.80;3.43;;;;;9.20;99768.00;;;;10139309;29;20234;-81
2023/12/10 01:52:20;;;;;;;23.27;4.17;;;;;9.20;99770.00;;;;10121242;29;20227;-79
2023/12/10 01:57:21;;;;;;;19.00;3.67;;;;;9.10;99781.00;;;;10103700;29;20310;-80
2023/12/10 02:02:23;;;;;;;21.47;4.20;;;;;9.10;99775.00;;;;10118483;29;20254;-79
2023/12/10 02:07:24;;;;;;;18.77;4.40;;;;;9.10;99778.00;;;;10133336;29;20227;-78
2023/12/10 02:12:27;;;;;;;20.97;4.70;;;;;9.10;99781.00;;;;10143546;29;20218;-80
2023/12/10 02:17:28;;;;;;;15.50;3.63;;;;;9.10;99786.00;;;;10124358;29;20730;-79
2023/12/10 02:22:30;;;;;;;19.60;4.70;;;;;9.20;99803.00;;;;10154445;29;20241;-79
2023/12/10 02:27:31;;;;;;;19.53;4.70;;;;;9.20;99818.00;;;;10134535;29;20253;-78
2023/12/10 02:32:32;;;;;;;20.17;4.40;;;;;9.20;99830.00;;;;10118039;29;20318;-77
2023/12/10 02:37:34;;;;;;;21.80;4.53;;;;;9.20;99844.00;;;;10107303;29;20230;-84
2023/12/10 02:42:35;;;;;;;18.03;4.37;;;;;9.20;99867.00;;;;10119200;29;20238;-84
2023/12/10 02:47:37;;;;;;;25.13;4.47;;;;;9.30;99868.00;;;;10140696;29;20238;-85
2023/12/10 02:52:38;;;;;;;19.93;3.90;;;;;9.30;99884.00;;;;10122113;29;20774;-84
2023/12/10 02:57:39;;;;;;;22.37;3.47;;;;;9.30;99893.00;;;;10111932;29;20227;-84
2023/12/10 03:02:41;;;;;;;21.90;4.10;;;;;9.30;99894.00;;;;10099135;29;20241;-84
2023/12/10 03:07:42;;;;;;;21.17;4.63;;;;;9.30;99881.00;;;;10105813;29;20231;-84
2023/12/10 03:12:43;;;;;;;15.77;3.70;;;;;9.30;99911.00;;;;10125192;29;20227;-83
2023/12/10 03:17:45;;;;;;;26.17;5.33;;;;;9.30;99891.00;;;;10129644;29;20233;-85
2023/12/10 03:22:46;;;;;;;19.77;3.90;;;;;9.40;99915.00;;;;10120193;29;20299;-84
2023/12/10 03:27:47;;;;;;;23.17;4.67;;;;;9.30;99911.00;;;;10123098;29;20226;-84
2023/12/10 03:32:48;;;;;;;21.53;4.20;;;;;9.30;99923.00;;;;10149638;28;20227;-82
2023/12/10 03:37:50;;;;;;;14.60;3.53;;;;;9.20;99922.00;;;;10159635;28;20289;-83
2023/12/10 03:42:51;;;;;;;16.73;3.77;;;;;9.00;99910.00;;;;10120779;29;20230;-84
2023/12/10 03:47:52;;;;;;;26.77;4.60;;;;;8.90;99920.00;;;;10121159;29;20263;-81
2023/12/10 03:52:53;;;;;;;14.53;3.73;;;;;8.80;99922.00;;;;10112798;29;20231;-83
2023/12/10 03:57:55;;;;;;;26.53;4.27;;;;;8.80;99927.00;;;;10131126;29;20324;-82
2023/12/10 04:02:56;;;;;;;18.70;4.20;;;;;8.80;99948.00;;;;10126338;29;20350;-81
2023/12/10 04:07:57;;;;;;;21.40;4.13;;;;;8.70;99963.00;;;;10123206;29;20230;-82
2023/12/10 04:12:59;;;;;;;19.87;4.33;;;;;8.70;99947.00;;;;10116419;29;20590;-82
2023/12/10 04:18:01;;;;;;;18.63;4.10;;;;;8.60;99953.00;;;;10129176;29;20234;-81
2023/12/10 04:23:02;;;;;;;22.40;4.00;;;;;8.70;99967.00;;;;10143818;29;20701;-82
2023/12/10 04:28:04;;;;;;;16.73;4.10;;;;;8.80;99972.00;;;;10101813;29;20238;-82
2023/12/10 04:33:05;;;;;;;26.67;4.73;;;;;8.90;99983.00;;;;10121173;29;20234;-82
2023/12/10 04:38:07;;;;;;;26.50;4.13;;;;;9.00;99999.00;;;;10114953;29;20226;-82
2023/12/10 04:43:09;;;;;;;24.63;4.73;;;;;9.10;100008.00;;;;10101746;29;20846;-82
2023/12/10 04:48:11;;;;;;;23.60;5.30;;;;;9.00;100007.00;;;;10119769;29;20246;-81
2023/12/10 04:53:13;;;;;;;26.20;4.73;;;;;8.90;100022.00;;;;10103680;29;20231;-81
2023/12/10 04:58:14;;;;;;;18.70;4.17;;;;;8.80;100029.00;;;;10119741;29;20265;-81
2023/12/10 05:03:15;;;;;;;29.00;4.43;;;;;8.70;100021.00;;;;10104403;29;20226;-82
2023/12/10 05:08:17;;;;;;;16.67;3.60;;;;;8.70;100025.00;;;;10106615;29;20223;-81
2023/12/10 05:13:18;;;;;;;32.13;5.40;;;;;8.70;100040.00;;;;10100811;29;20231;-82
2023/12/10 05:18:19;;;;;;;25.47;4.23;;;;;8.60;100051.00;;;;10103781;29;20227;-82
2023/12/10 05:23:21;;;;;;;21.57;4.20;;;;;8.50;100052.00;;;;10145982;29;20273;-81
2023/12/10 05:28:22;;;;;;;22.57;3.90;;;;;8.50;100061.00;;;;10118683;29;20227;-82
2023/12/10 05:33:23;;;;;;;20.87;4.43;;;;;8.50;100062.00;;;;10143601;29;20237;-82
2023/12/10 05:38:25;;;;;;;22.23;5.03;;;;;8.40;100069.00;;;;10120665;29;20674;-82
2023/12/10 05:43:27;;;;;;;26.87;4.47;;;;;8.50;100077.00;;;;10127689;29;20238;-81
2023/12/10 05:48:28;;;;;;;21.30;3.97;;;;;8.50;100074.00;;;;10103585;29;20765;-82
2023/12/10 05:53:29;;;;;;;25.00;4.93;;;;;8.50;100082.00;;;;10119376;29;20235;-82
2023/12/10 05:58:30;;;;;;;20.83;4.30;;;;;8.50;100090.00;;;;10127852;29;20282;-81
2023/12/10 06:03:32;;;;;;;21.20;4.20;;;;;8.50;100089.00;;;;10122821;29;20243;-81
2023/12/10 06:08:33;;;;;;;29.67;5.10;;;;;8.40;100092.00;;;;10096378;29;20257;-81
2023/12/10 06:13:34;;;;;;;19.97;4.00;;;;;8.40;100103.00;;;;10130273;29;20752;-81
2023/12/10 06:18:35;;;;;;;17.93;3.40;;;;;8.40;100111.00;;;;10116147;29;20247;-81
2023/12/10 06:23:37;;;;;;;25.57;4.63;;;;;8.30;100124.00;;;;10118510;29;20298;-80
2023/12/10 06:28:38;;;;;;;21.80;4.07;;;;;8.20;100129.00;;;;10128054;29;20229;-80
2023/12/10 06:33:44;;;;;;;27.77;4.07;;;;;8.20;100133.00;;;;10122512;29;20271;-81
2023/12/10 06:38:45;;;;;;;30.60;4.47;;;;;8.20;100151.00;;;;10141424;29;20238;-81
2023/12/10 06:43:46;;;;;;;13.83;4.67;;;;;8.20;100162.00;;;;10115659;29;20261;-81
2023/12/10 06:48:48;;;;;;;25.80;4.40;;;;;8.30;100176.00;;;;10119313;29;20239;-81
2023/12/10 06:53:49;;;;;;;24.03;4.87;;;;;8.30;100184.00;;;;10118041;29;20271;-80
2023/12/10 06:58:50;;;;;;;14.90;4.17;;;;;8.20;100189.00;;;;10122994;29;20243;-80
2023/12/10 07:03:51;;;;;;;20.63;4.17;;;;;8.20;100189.00;;;;10124285;29;20242;-80
2023/12/10 07:08:53;;;;;;;26.33;5.03;;;;;8.20;100191.00;;;;10120861;29;20261;-80
2023/12/10 07:13:54;;;;;;;25.13;4.40;;;;;8.20;100206.00;;;;10105315;29;20258;-80
2023/12/10 07:18:55;;;;;;;21.43;4.60;;;;;8.30;100234.00;;;;10120223;29;20231;-87
2023/12/10 07:23:57;;;;;;;24.73;4.70;;;;;8.30;100225.00;;;;10171886;29;20259;-86
2023/12/10 07:28:58;;;;;;;28.03;5.37;;;;;8.30;100232.00;;;;10152640;28;20250;-85
2023/12/10 07:33:59;;;;;;;17.30;4.30;;;;;8.30;100245.00;;;;10130661;29;20241;-85
2023/12/10 07:39:01;;;;;;;21.20;4.60;;;;;8.30;100247.00;;;;10151727;29;20235;-85
2023/12/10 07:44:02;;;;;;;23.23;4.77;;;;;8.30;100256.00;;;;10156414;29;20724;-86
2023/12/10 07:49:04;;;;;;;27.50;4.97;;;;;8.30;100261.00;;;;10173529;29;20234;-86
2023/12/10 07:54:05;;;;;;;25.93;4.50;;;;;8.30;100260.00;;;;10165531;29;20246;-86
2023/12/10 07:59:06;;;;;;;25.33;5.20;;;;;8.20;100251.00;;;;10160178;29;20234;-88
2023/12/10 08:04:08;;;;;;;29.53;4.90;;;;;8.20;100267.00;;;;10129643;29;20241;-86
2023/12/10 08:09:09;;;;;;;30.50;5.57;;;;;8.30;100277.00;;;;10126416;29;20238;-84
2023/12/10 08:14:10;;;;;;;29.53;5.43;;;;;8.30;100275.00;;;;10135978;29;20234;-85
2023/12/10 08:19:12;;;;;;;25.60;5.33;;;;;8.30;100276.00;;;;10144292;29;20230;-86
2023/12/10 08:24:13;;;;;;;32.33;5.00;;;;;8.40;100285.00;;;;10143139;29;20245;-87
2023/12/10 08:29:14;;;;;;;27.23;4.73;;;;;8.50;100284.00;;;;10113879;29;20845;-81
2023/12/10 08:34:16;;;;;;;31.80;4.73;;;;;8.70;100283.00;;;;10112778;29;20458;-83
2023/12/10 08:39:17;;;;;;;26.70;4.70;;;;;8.80;100271.00;;;;10110613;29;20702;-82
2023/12/10 08:44:18;;;;;;;23.47;5.37;;;;;8.90;100272.00;;;;10117357;29;20228;-82
2023/12/10 08:49:19;;;;;;;24.50;5.00;;;;;8.90;100260.00;;;;10112278;29;20237;-81
2023/12/10 08:54:21;;;;;;;35.87;5.70;;;;;9.00;100262.00;;;;10112535;29;20222;-82
2023/12/10 08:59:24;;;;;;;29.83;5.33;;;;;9.00;100279.00;;;;10105115;29;20290;-82
2023/12/10 09:04:25;;;;;;;27.20;6.13;;;;;8.90;100279.00;;;;10122144;29;20250;-81
2023/12/10 09:09:28;;;;;;;37.13;6.23;;;;;9.00;100292.00;;;;10096929;29;20713;-82
2023/12/10 09:14:29;;;;;;;26.97;6.07;;;;;9.40;100310.00;;;;10131690;29;20243;-82
2023/12/10 09:19:31;;;;;;;27.30;5.87;;;;;9.70;100315.00;;;;10105986;29;20238;-83
2023/12/10 09:24:33;;;;;;;34.17;6.33;;;;;10.00;100305.00;;;;10136948;29;20226;-82
2023/12/10 09:29:38;;;;;;;32.03;5.67;;;;;10.30;100298.00;;;;10132560;29;20227;-80
2023/12/10 09:34:40;;;;;;;32.50;5.87;;;;;10.00;100296.00;;;;10157548;29;20240;-83
2023/12/10 09:39:41;;;;;;;39.00;6.97;;;;;10.30;100297.00;;;;10120943;29;20242;-83
2023/12/10 09:44:43;;;;;;;34.43;6.60;;;;;10.50;100291.00;;;;10102991;29;20246;-84
2023/12/10 09:49:45;;;;;;;33.53;7.07;;;;;10.80;100292.00;;;;10125045;29;20238;-83
2023/12/10 09:54:47;;;;;;;38.30;6.27;;;;;11.00;100301.00;;;;10115825;29;21024;-82
2023/12/10 09:59:49;;;;;;;35.30;7.10;;;;;11.20;100296.00;;;;10116108;29;20227;-80
2023/12/10 10:04:50;;;;;;;31.80;5.50;;;;;11.30;100294.00;;;;10123472;29;20230;-80
2023/12/10 10:09:51;;;;;;;26.73;5.67;;;;;11.30;100306.00;;;;10103701;29;20223;-83
2023/12/10 10:14:57;;;;;;;38.30;7.47;;;;;11.20;100315.00;;;;10135777;29;20354;-82
2023/12/10 10:19:58;;;;;;;35.30;6.97;;;;;11.20;100312.00;;;;10134592;29;20227;-82
2023/12/10 10:25:00;;;;;;;29.57;6.50;;;;;11.40;100314.00;;;;10137258;29;20289;-80
2023/12/10 10:30:03;;;;;;;37.23;7.10;;;;;11.10;100306.00;;;;10139613;29;20233;-83
2023/12/10 10:35:06;;;;;;;40.80;8.23;;;;;11.20;100291.00;;;;10102525;29;20238;-84
2023/12/10 10:40:08;;;;;;;32.27;6.43;;;;;11.30;100284.00;;;;10115847;29;20297;-83
2023/12/10 10:45:10;;;;;;;24.37;5.03;;;;;11.30;100276.00;;;;10109981;29;20338;-84
2023/12/10 10:50:11;;;;;;;26.83;5.43;;;;;11.30;100261.00;;;;10104424;29;20233;-80
2023/12/10 10:55:26;;;;;;;30.43;5.57;;;;;11.30;100257.00;;;;10101387;29;20234;-78
2023/12/10 11:00:28;;;;;;;27.77;5.75;;;;;11.30;100265.00;;;;10121037;29;20238;-77
2023/12/10 11:05:33;;;;;;;32.53;6.53;;;;;11.50;100252.00;;;;10131383;29;20284;-76
2023/12/10 11:10:39;;;;;;;33.90;5.93;;;;;11.80;100235.00;;;;10100407;29;20238;-77
2023/12/10 11:15:40;;;;;;;22.42;5.05;;;;;12.10;100244.00;;;;10116398;29;20321;-79
2023/12/10 11:20:46;;;;;;;29.58;6.57;;;;;12.50;100229.00;;;;10143881;29;20305;-75
2023/12/10 11:25:51;;;;;;;28.52;5.28;;;;;12.70;100244.00;;;;10132550;29;20238;-77
2023/12/10 11:30:52;;;;;;;32.95;5.68;;;;;12.60;100250.00;;;;10130174;29;20321;-79
2023/12/10 11:35:57;;;;;;;34.67;6.00;;;;;12.40;100241.00;;;;10128989;29;20243;-78
2023/12/10 11:41:18;;;;;;;31.48;6.85;;;;;12.20;100223.00;;;;10128181;29;20227;-79
2023/12/10 11:46:21;;;;;;;29.58;5.25;;;;;12.00;100206.00;;;;10111778;29;20254;-78
2023/12/10 11:51:27;;;;;;;30.58;6.38;;;;;11.90;100186.00;;;;10126951;29;20956;-79
2023/12/10 11:56:28;;;;;;;22.03;4.77;;;;;11.80;100181.00;;;;10124955;29;20253;-80
2023/12/10 12:01:31;;;;;;;33.83;5.77;;;;;11.90;100173.00;;;;10079375;29;20318;-80
2023/12/10 12:06:43;;;;;;;32.80;5.07;;;;;12.10;100170.00;;;;10112405;29;20230;-80
2023/12/10 12:11:44;;;;;;;29.37;5.77;;;;;12.20;100163.00;;;;10129617;29;20302;-80
2023/12/10 12:16:46;;;;;;;30.13;5.90;;;;;12.10;100147.00;;;;10090665;29;20233;-81
2023/12/10 12:21:47;;;;;;;30.77;5.22;;;;;12.00;100131.00;;;;10134033;29;20235;-80
2023/12/10 12:26:50;;;;;;;31.88;6.05;;;;;11.70;100155.00;;;;10152158;29;21001;-81
2023/12/10 12:31:51;;;;;;;27.00;5.50;;;;;11.50;100169.00;;;;10123484;29;20278;-81
2023/12/10 12:37:13;;;;;;;26.67;5.78;;;;;11.60;100158.00;;;;10099664;29;20589;-80
2023/12/10 12:42:14;;;;;;;27.70;4.67;;;;;11.70;100136.00;;;;10138242;29;20764;-81
2023/12/10 12:47:15;;;;;;;16.97;4.27;;;;;11.70;100141.00;;;;10130639;29;20879;-80
2023/12/10 12:52:17;;;;;;;31.23;6.90;;;;;11.30;100123.00;;;;10110121;29;20227;-80
2023/12/10 12:57:18;;;;;;;25.97;6.00;;;;;11.10;100131.00;;;;10089416;29;20260;-80
2023/12/10 13:02:19;;;;;;;32.40;7.33;;;;;11.00;100135.00;;;;10114738;29;20293;-80
2023/12/10 13:07:21;;;;;;;29.63;5.97;;;;;10.90;100132.00;;;;10106376;29;20235;-82
2023/12/10 13:12:22;;;;;;;19.70;5.07;;;;;10.90;100125.00;;;;10131394;29;20265;-81
2023/12/10 13:17:24;;;;;;;26.33;6.17;;;;;10.90;100127.00;;;;10104532;29;20254;-81
2023/12/10 13:22:26;;;;;;;24.30;5.47;;;;;10.80;100099.00;;;;10098513;29;20315;-82
2023/12/10 13:27:27;;;;;;;25.40;6.07;;;;;10.70;100087.00;;;;10117784;29;20335;-81
2023/12/10 13:32:29;;;;;;;31.83;5.90;;;;;10.60;100074.00;;;;10095391;29;20241;-81
2023/12/10 13:37:30;;;;;;;23.57;4.37;;;;;10.60;100053.00;;;;10116094;29;20235;-81
2023/12/10 13:42:33;;;;;;;29.60;5.30;;;;;10.50;100045.00;;;;10098027;29;20237;-80
2023/12/10 13:47:34;;;;;;;23.73;4.27;;;;;10.40;100022.00;;;;10108152;29;20241;-80
2023/12/10 13:52:36;;;;;;;21.73;4.27;;;;;10.20;100046.00;;;;10105333;29;20246;-80
2023/12/10 13:57:37;;;;;;;29.30;4.57;;;;;10.10;100008.00;;;;10137129;29;20330;-80
2023/12/10 14:02:39;;;;;;;19.90;4.27;;;;;10.00;100014.00;;;;10105808;29;20253;-80
2023/12/10 14:07:43;;;;;;;20.50;4.77;;;;;10.10;100010.00;;;;10119194;29;20352;-79
2023/12/10 14:12:44;;;;;;;21.80;5.00;;;;;10.00;99976.00;;;;10127945;29;20251;-81
2023/12/10 14:17:46;;;;;;;25.87;4.70;;;;;9.90;99984.00;;;;10118740;29;20245;-78
2023/12/10 14:22:47;;;;;;;27.20;4.03;;;;;9.90;99966.00;;;;10123980;29;20235;-79
2023/12/10 14:27:48;;;;;;;22.63;4.10;;;;;9.80;99935.00;;;;10113927;29;20231;-77
2023/12/10 14:32:49;;;;;;;23.90;5.47;;;;;9.80;99929.00;;;;10102721;29;20240;-79
2023/12/10 14:37:51;;;;;;;20.00;3.80;;;;;9.80;99942.00;;;;10132230;29;20266;-75
2023/12/10 14:42:52;;;;;;;14.83;3.37;;;;;9.70;99922.00;;;;10117639;29;20250;-79
2023/12/10 14:47:55;;;;;;;16.63;3.13;;;;;9.70;99915.00;;;;10137443;29;20231;-76
2023/12/10 14:52:56;;;;;;;21.33;3.83;;;;;9.70;99879.00;;;;10104440;29;20219;-76
2023/12/10 14:57:58;;;;;;;16.03;3.50;;;;;9.60;99852.00;;;;10097943;29;20234;-80
2023/12/10 15:02:59;;;;;;;10.77;2.10;;;;;9.60;99852.00;;;;10149947;29;20941;-77
2023/12/10 15:08:01;;;;;;;16.23;4.13;;;;;9.60;99846.00;;;;10114266;29;20885;-79
2023/12/10 15:13:02;;;;;;;14.47;2.53;;;;;9.60;99843.00;;;;10116830;29;20332;-77
2023/12/10 15:18:04;;;;;;;24.30;3.87;;;;;9.50;99846.00;;;;10101663;29;20302;-75
2023/12/10 15:23:05;;;;;;;19.50;4.67;;;;;9.40;99824.00;;;;10132673;29;20302;-75
2023/12/10 15:28:06;;;;;;;23.53;4.53;;;;;9.30;99808.00;;;;10093279;29;20675;-78
2023/12/10 15:33:08;;;;;;;16.53;3.77;;;;;9.20;99786.00;;;;10102126;29;20238;-79
2023/12/10 15:38:09;;;;;;;16.80;3.07;;;;;9.00;99777.00;;;;10126878;29;20619;-76
2023/12/10 15:43:11;;;;;;;19.13;2.97;;;;;8.90;99775.00;;;;10098065;29;20318;-75
2023/12/10 15:48:12;;;;;;;15.47;3.20;;;;;8.70;99772.00;;;;10094788;29;20218;-82
2023/12/10 15:53:13;;;;;;;14.10;3.60;;;;;8.60;99740.00;;;;10117615;29;20301;-77
2023/12/10 15:58:15;;;;;;;10.60;2.60;;;;;8.50;99725.00;;;;10100750;29;20326;-78
2023/12/10 16:03:16;;;;;;;23.90;4.10;;;;;8.50;99684.00;;;;10107816;29;20226;-76
2023/12/10 16:08:17;;;;;;;11.37;2.67;;;;;8.50;99674.00;;;;10119069;29;20230;-78
2023/12/10 16:13:19;;;;;;;16.00;2.73;;;;;8.50;99642.00;;;;10121860;29;20229;-80
2023/12/10 16:18:24;;;;;;;19.33;2.83;;;;;8.50;99631.00;;;;10094472;29;21059;-78
2023/12/10 16:23:26;;;;;;;9.30;2.77;;;;;8.40;99592.00;;;;10120981;29;20235;-78
2023/12/10 16:28:27;;;;;;;20.83;3.97;;;;;8.40;99593.00;;;;10118036;29;20648;-77
2023/12/10 16:33:30;;;;;;;14.63;2.90;;;;;8.40;99572.00;;;;10132246;29;20242;-78
2023/12/10 16:38:31;;;;;;;11.97;2.60;;;;;8.40;99569.00;;;;10121845;29;20282;-81
2023/12/10 16:43:32;;;;;;;10.80;3.13;;;;;8.40;99560.00;;;;10123258;29;20227;-77
2023/12/10 16:48:34;;;;;;;9.77;2.17;;;;;8.40;99540.00;;;;10137544;29;20730;-78
2023/12/10 16:53:35;;;;;;;11.73;3.27;;;;;8.50;99529.00;;;;10113511;29;20249;-80
2023/12/10 16:58:36;;;;;;;5.60;1.77;;;;;8.50;99525.00;;;;10135684;29;20342;-80
2023/12/10 17:03:37;;;;;;;8.63;2.03;;;;;8.50;99510.00;;;;10111572;29;20250;-79
2023/12/10 17:08:39;;;;;;;9.50;1.70;;;;;8.60;99494.00;;;;10133697;29;20230;-79
2023/12/10 17:13:40;;;;;;;6.47;1.57;;;;;8.70;99510.00;;;;10136577;29;20223;-78
2023/12/10 17:18:41;;;;;;;8.90;1.63;;;;;8.80;99492.00;;;;10140961;29;20238;-78
2023/12/10 17:23:43;;;;;;;5.13;1.33;;;;;8.90;99464.00;;;;10162158;29;20222;-79
2023/12/10 17:28:44;;;;;;;2.63;1.20;;;;;9.00;99466.00;;;;10118770;29;20221;-79
2023/12/10 17:33:45;;;;;;;4.67;1.30;;;;;9.00;99458.00;;;;10124076;29;20246;-81
2023/12/10 17:38:47;;;;;;;6.00;1.30;;;;;9.10;99439.00;;;;10102636;29;20235;-79
2023/12/10 17:43:48;;;;;;;5.77;1.80;;;;;9.20;99465.00;;;;10138573;29;20297;-82
2023/12/10 17:48:49;;;;;;;6.87;1.57;;;;;9.30;99485.00;;;;10105800;29;20309;-79
2023/12/10 17:53:53;;;;;;;5.63;1.43;;;;;9.30;99460.00;;;;10144225;29;20234;-79
2023/12/10 17:58:54;;;;;;;3.53;1.70;;;;;9.40;99492.00;;;;10124430;29;20880;-79
2023/12/10 18:03:56;;;;;;;4.17;1.70;;;;;9.50;99508.00;;;;10101657;29;20231;-79
2023/12/10 18:08:57;;;;;;;8.50;2.00;;;;;9.60;99485.00;;;;10101582;29;20229;-80
2023/12/10 18:13:58;;;;;;;6.57;2.00;;;;;9.70;99465.00;;;;10114789;29;20239;-79
2023/12/10 18:19:00;;;;;;;9.53;2.50;;;;;9.80;99467.00;;;;10117090;29;20243;-79
2023/12/10 18:24:02;;;;;;;4.57;1.93;;;;;9.90;99453.00;;;;10097840;29;20289;-80
2023/12/10 18:29:03;;;;;;;5.13;2.43;;;;;10.00;99468.00;;;;10120885;29;20227;-79
2023/12/10 18:34:04;;;;;;;6.37;2.63;;;;;10.00;99463.00;;;;10107301;29;20874;-79
2023/12/10 18:39:06;;;;;;;7.43;2.40;;;;;10.20;99481.00;;;;10112570;29;20227;-78
2023/12/10 18:44:07;;;;;;;6.23;2.07;;;;;10.30;99478.00;;;;10128328;29;20286;-80
2023/12/10 18:49:08;;;;;;;5.03;1.80;;;;;10.40;99499.00;;;;10140465;29;20695;-78
2023/12/10 18:54:10;;;;;;;5.30;1.90;;;;;10.40;99513.00;;;;10131157;29;20237;-78
2023/12/10 18:59:11;;;;;;;7.23;2.63;;;;;10.50;99512.00;;;;10107286;29;20241;-80
2023/12/10 19:04:12;;;;;;;3.73;2.47;;;;;10.50;99522.00;;;;10112157;29;20227;-80
2023/12/10 19:09:14;;;;;;;6.10;1.93;;;;;10.60;99518.00;;;;10112818;29;20378;-80
2023/12/10 19:14:15;;;;;;;6.20;2.40;;;;;10.70;99526.00;;;;10128167;29;20762;-81
2023/12/10 19:19:16;;;;;;;5.80;2.53;;;;;10.70;99515.00;;;;10144202;29;20268;-80
2023/12/10 19:24:18;;;;;;;10.97;3.13;;;;;10.60;99520.00;;;;10143014;29;20229;-81
2023/12/10 19:29:19;;;;;;;8.63;2.63;;;;;10.50;99507.00;;;;10121154;29;20911;-80
2023/12/10 19:34:20;;;;;;;11.87;2.70;;;;;10.50;99505.00;;;;10099804;29;20237;-80
2023/12/10 19:39:22;;;;;;;6.63;2.30;;;;;10.50;99484.00;;;;10106835;29;20238;-79
2023/12/10 19:44:23;;;;;;;14.60;2.63;;;;;10.50;99485.00;;;;10101852;29;20310;-80
2023/12/10 19:49:24;;;;;;;8.37;2.40;;;;;10.50;99493.00;;;;10137223;29;20798;-80
2023/12/10 19:54:25;;;;;;;8.07;2.70;;;;;10.50;99497.00;;;;10124765;29;20265;-80
2023/12/10 19:59:27;;;;;;;14.50;2.60;;;;;10.40;99490.00;;;;10111235;29;20228;-80
2023/12/10 20:04:28;;;;;;;9.80;2.53;;;;;10.40;99494.00;;;;10120110;29;20270;-81
2023/12/10 20:09:29;;;;;;;9.80;2.50;;;;;10.30;99502.00;;;;10098921;29;20239;-81
2023/12/10 20:14:32;;;;;;;8.47;2.60;;;;;10.30;99512.00;;;;10127365;29;20757;-80
2023/12/10 20:19:33;;;;;;;8.40;2.80;;;;;10.20;99518.00;;;;10104192;29;20257;-81
2023/12/10 20:24:35;;;;;;;17.93;3.10;;;;;10.20;99512.00;;;;10137842;29;20231;-81
2023/12/10 20:29:43;;;;;;;15.20;3.00;;;;;10.10;99528.00;;;;10167252;29;20234;-82
2023/12/10 20:34:45;;;;;;;15.77;3.27;;;;;10.00;99537.00;;;;10141180;29;20659;-82
2023/12/10 20:39:46;;;;;;;18.07;3.43;;;;;10.00;99547.00;;;;10127448;29;20650;-81
2023/12/10 20:44:50;;;;;;;15.57;3.27;;;;;10.00;99565.00;;;;10111888;29;20238;-81
2023/12/10 20:49:51;;;;;;;12.53;3.17;;;;;10.00;99554.00;;;;10103720;29;20301;-82
2023/12/10 20:54:52;;;;;;;13.03;3.17;;;;;9.90;99556.00;;;;10121980;29;20226;-81
2023/12/10 20:59:54;;;;;;;16.80;3.47;;;;;9.80;99562.00;;;;10105358;29;20689;-82
2023/12/10 21:04:55;;;;;;;18.97;4.07;;;;;9.80;99573.00;;;;10106818;29;20238;-81
2023/12/10 21:09:56;;;;;;;18.17;3.00;;;;;9.80;99555.00;;;;10106704;29;20225;-82
2023/12/10 21:14:57;;;;;;;15.83;3.40;;;;;9.80;99551.00;;;;10102949;29;20279;-82
2023/12/10 21:19:59;;;;;;;20.57;3.80;;;;;9.70;99564.00;;;;10127467;29;20269;-87
2023/12/10 21:25:01;;;;;;;24.73;4.27;;;;;9.70;99564.00;;;;10121818;29;20239;-87
2023/12/10 21:30:03;;;;;;;26.53;4.20;;;;;9.60;99561.00;;;;10116421;29;20229;-86
2023/12/10 21:35:05;;;;;;;24.27;4.73;;;;;9.60;99551.00;;;;10101702;29;20321;-86
2023/12/10 21:40:07;;;;;;;24.23;4.27;;;;;9.60;99560.00;;;;10108592;29;20245;-85
2023/12/10 21:45:09;;;;;;;31.87;5.37;;;;;9.60;99568.00;;;;10117516;29;20305;-88
2023/12/10 21:50:10;;;;;;;41.40;7.50;;;;;9.60;99583.00;;;;10100838;29;20469;-88
2023/12/10 21:55:12;;;;;;;33.97;6.03;;;;;9.60;99575.00;;;;10104349;29;20259;-86
2023/12/10 22:00:17;;;;;;;38.33;5.90;;;;;9.60;99584.00;;;;10126297;29;20238;-86
2023/12/10 22:05:18;;;;;;;31.47;6.27;;;;;9.50;99596.00;;;;10147652;29;20287;-84
2023/12/10 22:10:19;;;;;;;24.73;5.60;;;;;9.60;99573.00;;;;10104243;29;20226;-86
2023/12/10 22:15:21;;;;;;;30.90;6.27;;;;;9.80;99556.00;;;;10125925;29;20282;-84
2023/12/10 22:20:22;;;;;;;39.87;7.20;;;;;9.80;99567.00;;;;10109578;29;20234;-84
2023/12/10 22:25:23;;;;;;;38.10;7.10;;;;;9.80;99566.00;;;;10096119;29;20240;-85
2023/12/10 22:30:26;;;;;;;40.27;6.77;;;;;9.90;99556.00;;;;10144249;29;20234;-85
2023/12/10 22:35:28;;;;;;;43.40;6.13;;;;;9.90;99552.00;;;;10113853;29;20226;-85
2023/12/10 22:40:29;;;;;;;38.27;7.83;;;;;9.80;99560.00;;;;10105887;29;20752;-84
2023/12/10 22:45:30;;;;;;;32.10;5.80;;;;;9.90;99568.00;;;;10136268;29;20229;-84
2023/12/10 22:50:32;;;;;;;27.60;6.77;;;;;9.90;99573.00;;;;10124140;29;20234;-84
2023/12/10 22:55:33;;;;;;;43.73;6.23;;;;;9.90;99572.00;;;;10128426;29;20231;-84
2023/12/10 23:00:34;;;;;;;36.30;5.90;;;;;9.90;99574.00;;;;10101529;29;20254;-84
2023/12/10 23:05:36;;;;;;;40.83;6.20;;;;;9.80;99572.00;;;;10176703;29;20218;-83
2023/12/10 23:10:37;;;;;;;38.33;5.83;;;;;9.80;99574.00;;;;10175494;28;20273;-84
2023/12/10 23:15:38;;;;;;;38.43;6.53;;;;;9.90;99565.00;;;;10121535;29;20611;-84
2023/12/10 23:20:39;;;;;;;33.70;5.67;;;;;9.80;99570.00;;;;10117246;29;20223;-84
2023/12/10 23:25:41;;;;;;;36.70;6.27;;;;;9.90;99581.00;;;;10125373;29;20238;-84
2023/12/10 23:30:42;;;;;;;39.20;7.00;;;;;10.00;99592.00;;;;10118438;29;20282;-84
2023/12/10 23:35:46;;;;;;;37.10;6.93;;;;;10.00;99593.00;;;;10114693;29;20227;-85
2023/12/10 23:40:47;;;;;;;39.80;5.97;;;;;10.00;99571.00;;;;10115244;29;20254;-83
2023/12/10 23:45:49;;;;;;;33.83;5.87;;;;;9.90;99553.00;;;;10109663;29;20674;-83
2023/12/10 23:50:50;;;;;;;32.47;5.33;;;;;9.80;99567.00;;;;10115668;29;20577;-84
2023/12/10 23:55:51;;;;;;;34.27;6.30;;;;;9.70;99568.00;;;;10106982;29;20749;-84
